createdAt,value
2019-06-20T00:04:52.983Z,95860.00
2019-06-20T00:09:55.450Z,95863.00
2019-06-20T00:14:58.075Z,95856.00
2019-06-20T00:20:00.568Z,95836.00
2019-06-20T00:25:03.169Z,95856.00
2019-06-20T00:30:07.705Z,95850.00
2019-06-20T00:35:13.087Z,95856.00
2019-06-20T00:40:15.876Z,95863.00
2019-06-20T00:45:18.720Z,95870.00
2019-06-20T00:50:21.224Z,95875.00
2019-06-20T00:55:23.877Z,95879.00
2019-06-20T01:00:26.413Z,95883.00
2019-06-20T01:05:29.061Z,95899.00
2019-06-20T01:10:31.562Z,95906.00
2019-06-20T01:15:34.095Z,95960.00
2019-06-20T01:20:36.578Z,95986.00
2019-06-20T01:25:42.467Z,96001.00
2019-06-20T01:30:45.101Z,95999.00
2019-06-20T01:35:48.447Z,96000.00
2019-06-20T01:40:52.990Z,96006.00
2019-06-20T01:45:56.851Z,96069.00
2019-06-20T01:51:00.721Z,96016.00
2019-06-20T01:56:03.200Z,96010.00
2019-06-20T02:01:06.635Z,95991.00
2019-06-20T02:06:09.116Z,96010.00
2019-06-20T02:11:11.764Z,96007.00
2019-06-20T02:16:14.393Z,96023.00
2019-06-20T02:21:17.014Z,96021.00
2019-06-20T02:26:19.524Z,96027.00
2019-06-20T02:31:22.005Z,96023.00
2019-06-20T02:36:24.484Z,96011.00
2019-06-20T02:41:27.020Z,96004.00
2019-06-20T02:46:29.633Z,96000.00
2019-06-20T02:51:32.480Z,96028.00
2019-06-20T02:56:35.008Z,96025.00
2019-06-20T03:01:37.502Z,96005.00
2019-06-20T03:06:40.019Z,96012.00
2019-06-20T03:11:42.540Z,96049.00
2019-06-20T03:16:45.088Z,96058.00
2019-06-20T03:21:47.519Z,96060.00
2019-06-20T03:26:49.981Z,96068.00
2019-06-20T03:31:52.425Z,96071.00
2019-06-20T03:36:55.245Z,96078.00
2019-06-20T03:41:57.689Z,96078.00
2019-06-20T03:47:00.212Z,96076.00
2019-06-20T03:52:02.777Z,96088.00
2019-06-20T03:57:05.382Z,96095.00
2019-06-20T04:02:08.151Z,96081.00
2019-06-20T04:07:10.565Z,96073.00
2019-06-20T04:12:13.126Z,96072.00
2019-06-20T04:17:15.645Z,96078.00
2019-06-20T04:22:18.133Z,96059.00
2019-06-20T04:27:21.649Z,96032.00
2019-06-20T04:32:24.072Z,96029.00
2019-06-20T04:37:26.629Z,96018.00
2019-06-20T04:42:29.092Z,96006.00
2019-06-20T04:47:31.583Z,96007.00
2019-06-20T04:52:34.093Z,96023.00
2019-06-20T04:57:36.734Z,96052.00
2019-06-20T05:02:39.444Z,96056.00
2019-06-20T05:07:42.601Z,96061.00
2019-06-20T05:12:45.053Z,96067.00
2019-06-20T05:17:47.775Z,96075.00
2019-06-20T05:22:50.362Z,96081.00
2019-06-20T05:27:52.804Z,96091.00
2019-06-20T05:32:55.269Z,96091.00
2019-06-20T05:37:57.748Z,96096.00
2019-06-20T05:43:00.199Z,96100.00
2019-06-20T05:48:02.932Z,96105.00
2019-06-20T05:53:05.841Z,96106.00
2019-06-20T05:58:08.367Z,96109.00
2019-06-20T06:03:13.650Z,96103.00
2019-06-20T06:08:16.356Z,96109.00
2019-06-20T06:13:19.540Z,96110.00
2019-06-20T06:18:23.065Z,96106.00
2019-06-20T06:23:26.012Z,96115.00
2019-06-20T06:28:28.528Z,96123.00
2019-06-20T06:33:31.167Z,96135.00
2019-06-20T06:38:34.061Z,96148.00
2019-06-20T06:43:41.744Z,96155.00
2019-06-20T06:49:01.107Z,96181.00
2019-06-20T06:54:06.679Z,96188.00
2019-06-20T06:59:10.689Z,96187.00
2019-06-20T07:04:13.524Z,96189.00
2019-06-20T07:09:17.269Z,96197.00
2019-06-20T07:14:20.316Z,96195.00
2019-06-20T07:19:23.030Z,96219.00
2019-06-20T07:24:25.903Z,96178.00
2019-06-20T07:29:28.437Z,96179.00
2019-06-20T07:34:31.506Z,96177.00
2019-06-20T07:39:33.960Z,96177.00
2019-06-20T07:44:36.660Z,96154.00
2019-06-20T07:49:39.675Z,96157.00
2019-06-20T07:54:45.199Z,96131.00
2019-06-20T07:59:47.619Z,96148.00
2019-06-20T08:04:50.010Z,96156.00
2019-06-20T08:09:52.482Z,96138.00
2019-06-20T08:14:55.061Z,96135.00
2019-06-20T08:19:58.216Z,96130.00
2019-06-20T08:25:01.618Z,96134.00
2019-06-20T08:30:07.305Z,96127.00
2019-06-20T08:35:10.935Z,96141.00
2019-06-20T08:40:13.478Z,96139.00
2019-06-20T08:45:16.725Z,96143.00
2019-06-20T08:50:19.344Z,96144.00
2019-06-20T08:55:22.662Z,96153.00
2019-06-20T09:00:27.749Z,96149.00
2019-06-20T09:05:31.608Z,96140.00
2019-06-20T09:10:41.251Z,96131.00
2019-06-20T09:15:45.763Z,96140.00
2019-06-20T09:20:48.252Z,96156.00
2019-06-20T09:25:51.141Z,96182.00
2019-06-20T09:30:55.438Z,96198.00
2019-06-20T09:35:57.866Z,96200.00
2019-06-20T09:41:00.398Z,96200.00
2019-06-20T09:46:02.818Z,96207.00
2019-06-20T09:51:05.256Z,96206.00
2019-06-20T09:56:07.743Z,96219.00
2019-06-20T10:01:10.287Z,96220.00
2019-06-20T10:06:22.157Z,96227.00
2019-06-20T10:11:24.630Z,96218.00
2019-06-20T10:16:26.965Z,96211.00
2019-06-20T10:21:29.470Z,96211.00
2019-06-20T10:26:31.920Z,96221.00
2019-06-20T10:31:34.370Z,96209.00
2019-06-20T10:36:39.128Z,96221.00
2019-06-20T10:41:41.480Z,96214.00
2019-06-20T10:46:44.578Z,96216.00
2019-06-20T10:51:48.090Z,96223.00
2019-06-20T10:56:51.068Z,96218.00
2019-06-20T11:01:54.058Z,96218.00
2019-06-20T11:07:23.391Z,96227.00
2019-06-20T11:12:25.983Z,96229.00
2019-06-20T11:22:48.211Z,96212.00
2019-06-20T11:27:51.690Z,96198.00
2019-06-20T11:32:54.430Z,96202.00
2019-06-20T11:37:57.385Z,96192.00
2019-06-20T11:43:00.486Z,96180.00
2019-06-20T11:48:03.553Z,96186.00
2019-06-20T11:53:05.991Z,96179.00
2019-06-20T11:58:08.437Z,96163.00
2019-06-20T12:03:10.941Z,96174.00
2019-06-20T12:08:13.400Z,96161.00
2019-06-20T12:13:15.815Z,96156.00
2019-06-20T12:18:18.462Z,96167.00
2019-06-20T12:23:20.903Z,96169.00
2019-06-20T12:28:23.409Z,96179.00
2019-06-20T12:33:26.321Z,96165.00
2019-06-20T12:38:28.934Z,96158.00
2019-06-20T12:43:31.343Z,96151.00
2019-06-20T12:48:34.045Z,96146.00
2019-06-20T12:53:37.753Z,96138.00
2019-06-20T12:58:42.252Z,96133.00
2019-06-20T13:03:46.404Z,96126.00
2019-06-20T13:08:49.563Z,96122.00
2019-06-20T13:13:52.003Z,96119.00
2019-06-20T13:18:54.959Z,96103.00
2019-06-20T13:23:57.522Z,96098.00
2019-06-20T13:29:04.088Z,96106.00
2019-06-20T13:34:04.343Z,96093.00
2019-06-20T13:39:07.158Z,96097.00
2019-06-20T13:44:10.593Z,96086.00
2019-06-20T13:49:17.733Z,96090.00
2019-06-20T13:54:21.264Z,96098.00
2019-06-20T13:59:24.446Z,96091.00
2019-06-20T14:04:27.448Z,96086.00
2019-06-20T14:09:30.042Z,96097.00
2019-06-20T14:14:33.711Z,96083.00
2019-06-20T14:19:38.185Z,96071.00
2019-06-20T14:24:43.430Z,96049.00
2019-06-20T14:29:46.598Z,96072.00
2019-06-20T14:34:50.301Z,96074.00
2019-06-20T14:39:53.277Z,96085.00
2019-06-20T14:44:55.779Z,96080.00
2019-06-20T14:49:58.248Z,96096.00
2019-06-20T14:55:00.675Z,96098.00
2019-06-20T15:00:03.347Z,96089.00
2019-06-20T15:05:13.487Z,96089.00
2019-06-20T15:10:17.982Z,96093.00
2019-06-20T15:15:22.231Z,96091.00
2019-06-20T15:20:26.753Z,96098.00
2019-06-20T15:25:29.174Z,96109.00
2019-06-20T15:30:31.772Z,96135.00
2019-06-20T15:35:34.209Z,96152.00
2019-06-20T15:40:36.777Z,96144.00
2019-06-20T15:45:39.227Z,96156.00
2019-06-20T15:50:41.627Z,96162.00
2019-06-20T15:55:44.001Z,96213.00
2019-06-20T16:00:46.522Z,96203.00
2019-06-20T16:05:49.198Z,96228.00
2019-06-20T16:10:51.688Z,96239.00
2019-06-20T16:15:54.205Z,96246.00
2019-06-20T16:20:56.628Z,96246.00
2019-06-20T16:25:59.118Z,96262.00
2019-06-20T16:31:10.112Z,96269.00
2019-06-20T16:36:05.978Z,96261.00
2019-06-20T16:41:08.724Z,96255.00
2019-06-20T16:46:11.218Z,96244.00
2019-06-20T16:51:14.173Z,96238.00
2019-06-20T16:56:16.681Z,96234.00
2019-06-20T17:01:19.142Z,96242.00
2019-06-20T17:06:21.666Z,96244.00
2019-06-20T17:11:24.200Z,96237.00
2019-06-20T17:16:28.125Z,96234.00
2019-06-20T17:21:30.598Z,96210.00
2019-06-20T17:26:33.113Z,96207.00
2019-06-20T17:31:35.819Z,96216.00
2019-06-20T17:36:38.555Z,96212.00
2019-06-20T17:41:54.415Z,96218.00
2019-06-20T17:46:45.349Z,96229.00
2019-06-20T17:51:47.878Z,96216.00
2019-06-20T17:56:50.323Z,96229.00
2019-06-20T18:01:52.690Z,96234.00
2019-06-20T18:06:56.160Z,96240.00
2019-06-20T18:11:58.736Z,96248.00
2019-06-20T18:17:02.185Z,96254.00
2019-06-20T18:22:04.687Z,96275.00
2019-06-20T18:27:07.179Z,96276.00
2019-06-20T18:32:09.675Z,96278.00
2019-06-20T18:37:12.166Z,96276.00
2019-06-20T18:42:16.874Z,96277.00
2019-06-20T18:47:21.918Z,96275.00
2019-06-20T18:52:24.128Z,96282.00
2019-06-20T18:57:26.927Z,96281.00
2019-06-20T19:02:29.484Z,96282.00
2019-06-20T19:07:32.064Z,96277.00
2019-06-20T19:12:34.579Z,96272.00
2019-06-20T19:17:37.220Z,96267.00
2019-06-20T19:22:39.650Z,96267.00
2019-06-20T19:27:46.541Z,96274.00
2019-06-20T19:32:46.676Z,96276.00
2019-06-20T19:37:50.660Z,96282.00
2019-06-20T19:42:53.147Z,96297.00
2019-06-20T19:47:55.591Z,96302.00
2019-06-20T19:52:58.187Z,96313.00
2019-06-20T19:58:01.264Z,96314.00
2019-06-20T20:03:05.898Z,96326.00
2019-06-20T20:08:08.455Z,96328.00
2019-06-20T20:13:11.109Z,96329.00
2019-06-20T20:18:14.260Z,96332.00
2019-06-20T20:23:16.738Z,96335.00
2019-06-20T20:28:19.493Z,96340.00
2019-06-20T20:33:21.941Z,96339.00
2019-06-20T20:38:24.493Z,96343.00
2019-06-20T20:43:27.182Z,96351.00
2019-06-20T20:48:29.591Z,96351.00
2019-06-20T20:53:32.222Z,96355.00
2019-06-20T20:58:34.749Z,96356.00
2019-06-20T21:03:37.271Z,96369.00
2019-06-20T21:08:39.962Z,96369.00
2019-06-20T21:13:43.318Z,96375.00
2019-06-20T21:18:45.744Z,96379.00
2019-06-20T21:23:48.855Z,96381.00
2019-06-20T21:28:51.299Z,96375.00
2019-06-20T21:33:54.584Z,96384.00
2019-06-20T21:38:57.189Z,96393.00
2019-06-20T21:43:59.734Z,96392.00
2019-06-20T21:49:02.168Z,96407.00
2019-06-20T21:54:05.047Z,96408.00
2019-06-20T21:59:07.609Z,96403.00
2019-06-20T22:04:10.456Z,96404.00
2019-06-20T22:09:13.140Z,96405.00
2019-06-20T22:14:15.763Z,96404.00
2019-06-20T22:19:18.159Z,96413.00
2019-06-20T22:24:20.556Z,96408.00
2019-06-20T22:29:22.956Z,96401.00
2019-06-20T22:34:25.395Z,96412.00
2019-06-20T22:39:27.791Z,96399.00
2019-06-20T22:44:30.143Z,96401.00
2019-06-20T22:49:33.733Z,96399.00
2019-06-20T22:54:36.131Z,96389.00
2019-06-20T22:59:38.452Z,96381.00
2019-06-20T23:04:40.863Z,96388.00
2019-06-20T23:09:43.235Z,96384.00
2019-06-20T23:14:45.743Z,96380.00
2019-06-20T23:19:48.172Z,96390.00
2019-06-20T23:24:50.577Z,96382.00
2019-06-20T23:29:53.135Z,96388.00
2019-06-20T23:34:55.569Z,96384.00
2019-06-20T23:39:57.983Z,96387.00
2019-06-20T23:45:00.508Z,96380.00
2019-06-20T23:50:03.249Z,96387.00
2019-06-20T23:55:06.427Z,96383.00
